London Airport
CYXU : rendu visible

Aérodrome :











RETROUVEZ-NOUS SUR...

 
LOGIN :

S'inscrire | Disclaimer

   EN    FR    IT 

 









Légende :    VFR   VFR Marginal   IFR   IFR Intensif   IFR Très Intensif
Visi : 
Plafond : 
>= 8 km
>= 3000ft
5 à 8 km
1000 à 3000 ft
1500m à 5 km
500 à 1000 ft
800 à 1500m
200 à 500 ft
< 800m
< 200 ft
Symboles :   Orages  Brouillard  Fortes neiges  Fortes précipitations  Vent > 20 kt






- Altitude de l'aérodrome : 912 ft
- Code IATA : YXU


CYXU - London

DERNIER METAR :
  • 081000Z 01002KT 3/8SM R15/2800FT/N FG VV001 07/07 A2961 RMK FG8 SLP032

METARs EXPIRÉS :
  • 080900Z VRB02KT 3/8SM R15/2200FT/N FG VV001 07/07 A2959 RMK FG8 SLP026
  • 080800Z 00000KT 3/8SM R15/2400FT/N FG VV001 06/06 A2959 RMK FG8 SLP027
  • 080728Z 07004KT 1/2SM R15/5000VP6000FT/D FG VV001 06/06 A2959 RMK FG8 SLP026

TAF AMD TAF CYXU
Valide du 08 à 07h jusqu'au 09 à 06h UTC


080744Z 0807/0906 09005KT 1/2SM -DZ FG VV001
TEMPO 0807/0811 3SM BR OVC004
FM081100 29008KT 2SM -DZ BR OVC004
TEMPO 0811/0813 6SM BR OVC006
FM081300 31010KT 3SM BR OVC006
TEMPO 0813/0816 P6SM NSW BKN015
FM081600 31012G22KT P6SM FEW015
FM082000 31010G20KT P6SM BKN030
FM082300 20010KT P6SM -SHRA BKN020 OVC040
FM090200 20007KT 2SM -SHRA BR OVC006
PROB30 0904/0906 1/2SM SHRA VV002 RMK NXT FCST BY 081200Z



MET'MAP, la Météo Aéronautique d'un coup d'oeil ! - Copyright ORBIFLY Décembre 2007 - Disclaimer

ORBIFLY MET'MAP TEAM :

Programmation & Développement : Alexandra Zaïnal
Sur une idée originale de : Baudouin d'Aumeries
Assistance à la programmation : Marc-Olivier Méhu
Soutien technique & logistique : Manuel Goepfert

Contact : metmap@orbifly.com




SOURCES & CREDITS :

   NOAA       Earth
Advisory